Ava, OH (43711)

4:48 AM EDT on September 16, 2014 (GMT -0400)
Downtown Cambridge | Change Station
CLOSE
Current Station
Personal Weather Station
Location: Cambridge, OH
Elevation: 876 ft
Nearby Weather Stations

Elev 876 ft 40.03 °N, 81.59 °W | Updated 11 seconds ago

Overcast
Overcast
57.0 °F
Feels Like 57.0 °F
N
2.0
Wind Variable Wind from WNW
Gusts 6.0 mph

Today
High -- | Low -- °F
--% Chance of Precip.
Yesterday
High -- | Low -- °F
Precip. -- in
7:08 AM 7:33 PM
Waning Gibbous, 47% visible
Pressure 30.08 in
Visibility 10.0 miles
Clouds Scattered Clouds 1900 ft
Overcast 8000 ft
Dew Point 55 °F
Humidity 94%
Rainfall 0.00 in
Snow Depth Not available.
UV 0 out of 12
Pollen 3.70 out of 12
Air Quality Not available.
Flu Activity Not available.
SPECI KZZV 160840Z AUTO 31003KT 10SM SCT019 OVC080 13/12 A3008 RMK AO2 T01330117

More Conditions Fewer Conditions

Pressure 30.08 in
Visibility 10.0 miles
Clouds Scattered Clouds 1900 ft
Overcast 8000 ft
Dew Point 55 °F
Humidity 94%
Rainfall 0.00 in
Snow Depth Not available.
UV 0 out of 12
Pollen 3.70 out of 12
Air Quality Not available.
Flu Activity Not available.
SPECI KZZV 160840Z AUTO 31003KT 10SM SCT019 OVC080 13/12 A3008 RMK AO2 T01330117

More Conditions Fewer Conditions

10-Day Weather Forecast

Almanac

Astronomy

Sep. 16, 2014 Rise Set
Actual Time 7:08 AM EDT 7:33 PM EDT
Civil Twilight 6:41 AM EDT 8:00 PM EDT
Nautical Twilight 6:09 AM EDT 8:32 PM EDT
Astronomical Twilight 5:36 AM EDT 9:04 PM EDT
Moon 12:17 AM EDT 2:55 PM EDT
Length of Visible Light 13h 19m
Length of Day
12h 25m
Tomorrow will be 2m 36s shorter.
Waning Gibbous, 47% of the Moon is Illuminated
Today
Waning Gibbous
Sep 24
New
Oct 1
First Quarter
Oct 8
Full
Oct 15
Last Quarter

Today's Extremes

State Highs State Lows

Community

WunderPhotos

Upload Photos

1,753,712 photos uploaded!

WunderBlogs® & News

Nearby

Snow Depth

Station Depth Elevation
No new snow has been reported.

Earthquake Activity

City Distance Mag. Time & Date
No recent earthquake activity has been reported nearby.
Minimum magnitude displayed is 2.5.

Coastal Water Temperatures

Place Temperature
No Stations Reporting

Nearby Weather Stations